KBDH

Willmar Municipal-John L Rice Field Airport

Willmar, Minnesota, USA
METAR KBDH 210355Z AUTO 07004KT 10SM CLR 14/M01 A3015 RMK AO2
Observed Flight Rules
May-21 @ 03:55 UTC (3 hours ago) Visual Flight Rules
Wind Visibility Clouds
70° at 4 knots 10 miles
  • Clear skies
Temperatures Readings
Current 14°C / 57°F
Dewpoint -1°C / 30°F
Humidity 36%
Altimeter 30.15" Hg
Pressure 1021 hPa
Elevation 247
METAR KBDH 210355Z AUTO 07004KT 10SM CLR 14/M01 A3015 RMK AO2
Observed Flight Rules
May-21 @ 03:55 UTC
(3 hours ago)
VFR
Wind Visibility
70° at 4 knots 10 miles
Clouds
  • Clear skies
Temperature Dewpoint
14°C / 57°F -1°C / 30°F
Humidity Altimeter Pressure
36% 30.15" Hg 1021 hPa